DAL1426 KIAH-KATL
Flight info
| Callsign | DAL1426 |
|---|---|
| Flight time | 1h 31m |
| Altitude | 37000 |
| Route | GUMBY3 LCH Q24 PAYTN DCT SHYRE HOBTT3 |
| Aircraft | B738/M-SDE2E3FGHIRWXY/LB1 |
Departure
| Time | 2026-05-04 00:52 |
|---|---|
| Airport | George Bush Intercontinental Airport (KIAH) |
Arrival
| Time | 2026-05-04 02:24 |
|---|---|
| Airport | Hartsfield Jackson Atlanta International Airport (KATL) |
| Time | Latitude | Longitude | Altitude | Speed | Heading |
|---|---|---|---|---|---|
| 2026-05-04 00:39 | 29.98883 | -95.34992 | 106 ft | 0 kts | 90° |
| 2026-05-04 00:46 | 29.98882 | -95.34991 | 106 ft | 0 kts | 90° |
| 2026-05-04 00:47 | 29.98882 | -95.34989 | 106 ft | 1 kts | 90° |
| 2026-05-04 00:47 | 29.98881 | -95.34986 | 106 ft | 2 kts | 116° |
| 2026-05-04 00:47 | 29.98869 | -95.35018 | 105 ft | 7 kts | 276° |
| 2026-05-04 00:48 | 29.98877 | -95.35107 | 106 ft | 15 kts | 276° |
| 2026-05-04 00:48 | 29.98880 | -95.35243 | 106 ft | 10 kts | 287° |
| 2026-05-04 00:48 | 29.98881 | -95.35245 | 106 ft | 0 kts | 287° |
| 2026-05-04 00:48 | 29.98906 | -95.35290 | 106 ft | 15 kts | 305° |
| 2026-05-04 00:49 | 29.98931 | -95.35428 | 105 ft | 17 kts | 272° |
| 2026-05-04 00:49 | 29.98906 | -95.35518 | 106 ft | 10 kts | 238° |
| 2026-05-04 00:49 | 29.98867 | -95.35592 | 105 ft | 11 kts | 240° |
| 2026-05-04 00:49 | 29.98832 | -95.35666 | 106 ft | 10 kts | 242° |
| 2026-05-04 00:50 | 29.98824 | -95.35683 | 106 ft | 0 kts | 243° |
| 2026-05-04 00:50 | 29.98794 | -95.35739 | 106 ft | 13 kts | 219° |
| 2026-05-04 00:51 | 29.98713 | -95.35743 | 107 ft | 0 kts | 153° |
| 2026-05-04 00:51 | 29.98702 | -95.35737 | 107 ft | 10 kts | 153° |
| 2026-05-04 00:51 | 29.98528 | -95.35626 | 107 ft | 59 kts | 151° |
| 2026-05-04 00:51 | 29.97948 | -95.35270 | 108 ft | 127 kts | 151° |
| 2026-05-04 00:52 | 29.97011 | -95.34745 | 384 ft | 160 kts | 151° |
| 2026-05-04 00:52 | 29.96110 | -95.34106 | 1351 ft | 148 kts | 139° |
| 2026-05-04 00:52 | 29.95406 | -95.33167 | 1956 ft | 167 kts | 135° |
| 2026-05-04 00:52 | 29.94809 | -95.31861 | 2238 ft | 206 kts | 102° |
| 2026-05-04 00:53 | 29.94593 | -95.30116 | 2461 ft | 233 kts | 102° |
| 2026-05-04 00:53 | 29.94294 | -95.28226 | 3020 ft | 243 kts | 102° |
| 2026-05-04 00:53 | 29.93964 | -95.26313 | 3616 ft | 243 kts | 102° |
| 2026-05-04 00:53 | 29.93655 | -95.24398 | 3969 ft | 250 kts | 96° |
| 2026-05-04 00:54 | 29.93633 | -95.22310 | 4006 ft | 266 kts | 88° |
| 2026-05-04 00:54 | 29.93712 | -95.20160 | 4013 ft | 270 kts | 88° |
| 2026-05-04 00:54 | 29.93779 | -95.18004 | 4002 ft | 268 kts | 88° |
| 2026-05-04 00:54 | 29.93826 | -95.15863 | 3996 ft | 267 kts | 89° |
| 2026-05-04 00:55 | 29.93863 | -95.13728 | 4005 ft | 266 kts | 89° |
| 2026-05-04 00:55 | 29.93896 | -95.11596 | 4015 ft | 266 kts | 89° |
| 2026-05-04 00:55 | 29.93927 | -95.09437 | 4349 ft | 272 kts | 89° |
| 2026-05-04 00:55 | 29.93968 | -95.07250 | 4937 ft | 273 kts | 86° |
| 2026-05-04 00:56 | 29.94105 | -95.05062 | 5800 ft | 274 kts | 84° |
| 2026-05-04 00:56 | 29.94276 | -95.02878 | 6747 ft | 274 kts | 83° |
| 2026-05-04 00:56 | 29.94454 | -95.00663 | 7506 ft | 281 kts | 84° |
| 2026-05-04 00:56 | 29.94636 | -94.98397 | 8266 ft | 287 kts | 84° |
| 2026-05-04 00:57 | 29.94817 | -94.96089 | 9061 ft | 292 kts | 84° |
| 2026-05-04 00:57 | 29.94999 | -94.93740 | 9925 ft | 293 kts | 85° |
| 2026-05-04 00:57 | 29.95180 | -94.91374 | 10590 ft | 303 kts | 85° |
| 2026-05-04 00:57 | 29.95371 | -94.88857 | 10780 ft | 328 kts | 85° |
| 2026-05-04 00:58 | 29.95574 | -94.86147 | 11067 ft | 348 kts | 85° |
| 2026-05-04 00:58 | 29.95785 | -94.83327 | 11634 ft | 357 kts | 85° |
| 2026-05-04 00:58 | 29.95998 | -94.80465 | 12353 ft | 361 kts | 84° |
| 2026-05-04 00:58 | 29.96210 | -94.77595 | 12996 ft | 367 kts | 84° |
| 2026-05-04 00:59 | 29.96427 | -94.74662 | 13777 ft | 369 kts | 84° |
| 2026-05-04 00:59 | 29.96645 | -94.71696 | 14396 ft | 374 kts | 84° |
| 2026-05-04 00:59 | 29.96865 | -94.68685 | 14980 ft | 379 kts | 84° |
| 2026-05-04 00:59 | 29.97089 | -94.65634 | 15556 ft | 385 kts | 83° |
| 2026-05-04 01:00 | 29.97318 | -94.62491 | 16152 ft | 391 kts | 83° |
| 2026-05-04 01:00 | 29.97544 | -94.59387 | 16687 ft | 396 kts | 83° |
| 2026-05-04 01:00 | 29.97774 | -94.56204 | 17287 ft | 401 kts | 82° |
| 2026-05-04 01:00 | 29.98008 | -94.52945 | 17892 ft | 405 kts | 82° |
| 2026-05-04 01:01 | 29.98239 | -94.49731 | 18436 ft | 410 kts | 82° |
| 2026-05-04 01:01 | 29.98475 | -94.46435 | 18908 ft | 415 kts | 82° |
| 2026-05-04 01:01 | 29.98713 | -94.43102 | 19381 ft | 419 kts | 82° |
| 2026-05-04 01:01 | 29.98952 | -94.39732 | 19856 ft | 424 kts | 82° |
| 2026-05-04 01:02 | 29.99193 | -94.36322 | 20328 ft | 429 kts | 82° |
| 2026-05-04 01:02 | 29.99437 | -94.32871 | 20801 ft | 433 kts | 82° |
| 2026-05-04 01:02 | 29.99693 | -94.29390 | 21270 ft | 437 kts | 80° |
| 2026-05-04 01:02 | 30.00068 | -94.25893 | 21721 ft | 441 kts | 78° |
| 2026-05-04 01:03 | 30.00515 | -94.22379 | 22174 ft | 445 kts | 77° |
| 2026-05-04 01:03 | 30.00980 | -94.18835 | 22625 ft | 449 kts | 77° |
| 2026-05-04 01:03 | 30.01440 | -94.15247 | 23039 ft | 454 kts | 77° |
| 2026-05-04 01:03 | 30.01889 | -94.11621 | 23458 ft | 459 kts | 77° |
| 2026-05-04 01:04 | 30.02331 | -94.07958 | 23849 ft | 463 kts | 78° |
| 2026-05-04 01:04 | 30.02772 | -94.04265 | 24209 ft | 467 kts | 77° |
| 2026-05-04 01:04 | 30.03217 | -94.00542 | 24584 ft | 470 kts | 77° |
| 2026-05-04 01:04 | 30.03679 | -93.96796 | 24945 ft | 473 kts | 77° |
| 2026-05-04 01:05 | 30.04152 | -93.93027 | 25313 ft | 476 kts | 77° |
| 2026-05-04 01:05 | 30.04631 | -93.89231 | 25659 ft | 480 kts | 77° |
| 2026-05-04 01:05 | 30.05113 | -93.85407 | 26002 ft | 483 kts | 77° |
| 2026-05-04 01:05 | 30.05595 | -93.81559 | 26341 ft | 486 kts | 77° |
| 2026-05-04 01:06 | 30.06076 | -93.77687 | 26749 ft | 488 kts | 76° |
| 2026-05-04 01:06 | 30.06555 | -93.73804 | 27171 ft | 489 kts | 76° |
| 2026-05-04 01:06 | 30.07037 | -93.69902 | 27501 ft | 492 kts | 75° |
| 2026-05-04 01:06 | 30.07522 | -93.65973 | 27776 ft | 496 kts | 75° |
| 2026-05-04 01:07 | 30.08008 | -93.62015 | 28071 ft | 500 kts | 75° |
| 2026-05-04 01:07 | 30.08496 | -93.58031 | 28388 ft | 502 kts | 75° |
| 2026-05-04 01:07 | 30.08985 | -93.54023 | 28693 ft | 505 kts | 75° |
| 2026-05-04 01:07 | 30.09475 | -93.49994 | 28989 ft | 508 kts | 75° |
| 2026-05-04 01:08 | 30.09967 | -93.45945 | 29273 ft | 511 kts | 75° |
| 2026-05-04 01:08 | 30.10461 | -93.41868 | 29555 ft | 514 kts | 75° |
| 2026-05-04 01:08 | 30.10956 | -93.37765 | 29841 ft | 517 kts | 75° |
| 2026-05-04 01:08 | 30.11452 | -93.33650 | 30118 ft | 519 kts | 75° |
| 2026-05-04 01:09 | 30.11949 | -93.29504 | 30342 ft | 522 kts | 75° |
| 2026-05-04 01:09 | 30.12448 | -93.25338 | 30562 ft | 525 kts | 75° |
| 2026-05-04 01:09 | 30.12947 | -93.21155 | 30777 ft | 527 kts | 75° |
| 2026-05-04 01:09 | 30.13448 | -93.16953 | 30990 ft | 530 kts | 75° |
| 2026-05-04 01:10 | 30.13950 | -93.12724 | 31212 ft | 532 kts | 75° |
| 2026-05-04 01:10 | 30.14487 | -93.08503 | 31488 ft | 530 kts | 72° |
| 2026-05-04 01:10 | 30.15201 | -93.04339 | 31819 ft | 527 kts | 69° |
| 2026-05-04 01:10 | 30.16025 | -93.00227 | 32126 ft | 525 kts | 68° |
| 2026-05-04 01:11 | 30.16893 | -92.96131 | 32390 ft | 525 kts | 68° |
| 2026-05-04 01:11 | 30.17766 | -92.92026 | 32643 ft | 527 kts | 68° |
| 2026-05-04 01:11 | 30.18621 | -92.87907 | 32914 ft | 527 kts | 68° |
| 2026-05-04 01:11 | 30.19456 | -92.83775 | 33201 ft | 528 kts | 69° |
| 2026-05-04 01:12 | 30.20273 | -92.79634 | 33472 ft | 529 kts | 69° |
| 2026-05-04 01:12 | 30.21080 | -92.75485 | 33715 ft | 530 kts | 69° |
| 2026-05-04 01:12 | 30.21884 | -92.71317 | 33970 ft | 531 kts | 69° |
| 2026-05-04 01:12 | 30.22674 | -92.67207 | 34228 ft | 531 kts | 69° |
| 2026-05-04 01:13 | 30.23469 | -92.63057 | 34594 ft | 528 kts | 69° |
| 2026-05-04 01:13 | 30.24269 | -92.58872 | 34974 ft | 524 kts | 69° |
| 2026-05-04 01:13 | 30.25045 | -92.54821 | 35296 ft | 522 kts | 69° |
| 2026-05-04 01:13 | 30.25828 | -92.50738 | 35592 ft | 519 kts | 68° |
| 2026-05-04 01:14 | 30.26609 | -92.46663 | 35882 ft | 518 kts | 68° |
| 2026-05-04 01:14 | 30.27388 | -92.42603 | 36141 ft | 517 kts | 68° |
| 2026-05-04 01:14 | 30.28165 | -92.38544 | 36382 ft | 516 kts | 68° |
| 2026-05-04 01:14 | 30.28939 | -92.34492 | 36589 ft | 516 kts | 68° |
| 2026-05-04 01:15 | 30.29713 | -92.30435 | 36797 ft | 516 kts | 68° |
| 2026-05-04 01:15 | 30.30482 | -92.26387 | 37116 ft | 514 kts | 69° |
| 2026-05-04 01:15 | 30.31249 | -92.22345 | 37137 ft | 517 kts | 69° |
| 2026-05-04 01:16 | 30.32792 | -92.14203 | 37133 ft | 518 kts | 69° |
| 2026-05-04 01:16 | 30.34313 | -92.06105 | 37128 ft | 512 kts | 69° |
| 2026-05-04 01:17 | 30.35819 | -91.98077 | 37134 ft | 509 kts | 69° |
| 2026-05-04 01:17 | 30.37318 | -91.90072 | 37172 ft | 508 kts | 69° |
| 2026-05-04 01:18 | 30.38810 | -91.82081 | 37180 ft | 508 kts | 69° |
| 2026-05-04 01:18 | 30.40297 | -91.74083 | 37138 ft | 508 kts | 69° |
| 2026-05-04 01:19 | 30.41780 | -91.66075 | 37136 ft | 508 kts | 69° |
| 2026-05-04 01:19 | 30.43258 | -91.58062 | 37132 ft | 509 kts | 69° |
| 2026-05-04 01:20 | 30.44732 | -91.50043 | 37152 ft | 509 kts | 70° |
| 2026-05-04 01:20 | 30.46203 | -91.42007 | 37138 ft | 510 kts | 70° |
| 2026-05-04 01:21 | 30.47672 | -91.33960 | 37129 ft | 510 kts | 70° |
| 2026-05-04 01:21 | 30.49207 | -91.25938 | 37135 ft | 508 kts | 67° |
| 2026-05-04 01:22 | 30.51019 | -91.18042 | 37132 ft | 506 kts | 66° |
| 2026-05-04 01:22 | 30.52890 | -91.10170 | 37142 ft | 507 kts | 66° |
| 2026-05-04 01:23 | 30.54728 | -91.02272 | 37124 ft | 507 kts | 67° |
| 2026-05-04 01:23 | 30.56536 | -90.94360 | 37128 ft | 507 kts | 67° |
| 2026-05-04 01:24 | 30.58331 | -90.86443 | 37125 ft | 507 kts | 67° |
| 2026-05-04 01:24 | 30.60121 | -90.78531 | 37129 ft | 507 kts | 67° |
| 2026-05-04 01:25 | 30.61908 | -90.70611 | 37134 ft | 507 kts | 68° |
| 2026-05-04 01:25 | 30.63390 | -90.64031 | 37134 ft | 507 kts | 68° |
| 2026-05-04 01:26 | 30.65167 | -90.56119 | 37131 ft | 506 kts | 68° |
| 2026-05-04 01:26 | 30.66935 | -90.48221 | 37135 ft | 505 kts | 68° |
| 2026-05-04 01:27 | 30.68699 | -90.40322 | 37129 ft | 505 kts | 68° |
| 2026-05-04 01:27 | 30.70455 | -90.32433 | 37135 ft | 505 kts | 69° |
| 2026-05-04 01:28 | 30.72206 | -90.24537 | 37127 ft | 504 kts | 69° |
| 2026-05-04 01:28 | 30.73950 | -90.16649 | 37127 ft | 504 kts | 69° |
| 2026-05-04 01:29 | 30.75688 | -90.08769 | 37118 ft | 503 kts | 69° |
| 2026-05-04 01:29 | 30.77419 | -90.00890 | 37126 ft | 503 kts | 69° |
| 2026-05-04 01:30 | 30.79146 | -89.93011 | 37141 ft | 503 kts | 69° |
| 2026-05-04 01:30 | 30.80868 | -89.85127 | 37136 ft | 503 kts | 69° |
| 2026-05-04 01:31 | 30.82585 | -89.77241 | 37142 ft | 503 kts | 69° |
| 2026-05-04 01:31 | 30.84297 | -89.69352 | 37137 ft | 503 kts | 69° |
| 2026-05-04 01:32 | 30.85995 | -89.61505 | 37135 ft | 503 kts | 69° |
| 2026-05-04 01:32 | 30.87711 | -89.53551 | 37135 ft | 504 kts | 69° |
| 2026-05-04 01:33 | 30.89401 | -89.45687 | 37130 ft | 504 kts | 69° |
| 2026-05-04 01:33 | 30.91098 | -89.37768 | 37131 ft | 504 kts | 70° |
| 2026-05-04 01:34 | 30.92792 | -89.29840 | 37129 ft | 505 kts | 70° |
| 2026-05-04 01:34 | 30.94481 | -89.21907 | 37156 ft | 505 kts | 70° |
| 2026-05-04 01:35 | 30.96169 | -89.13956 | 37153 ft | 506 kts | 70° |
| 2026-05-04 01:35 | 30.97850 | -89.06007 | 37128 ft | 505 kts | 70° |
| 2026-05-04 01:36 | 30.99522 | -88.98079 | 37125 ft | 503 kts | 70° |
| 2026-05-04 01:36 | 31.01761 | -88.90476 | 37125 ft | 487 kts | 55° |
| 2026-05-04 01:37 | 31.04926 | -88.83514 | 37149 ft | 485 kts | 54° |
| 2026-05-04 01:37 | 31.08101 | -88.76577 | 37133 ft | 485 kts | 55° |
| 2026-05-04 01:38 | 31.11230 | -88.69605 | 37127 ft | 485 kts | 55° |
| 2026-05-04 01:38 | 31.14332 | -88.62615 | 37131 ft | 485 kts | 56° |
| 2026-05-04 01:39 | 31.17427 | -88.55615 | 37124 ft | 485 kts | 56° |
| 2026-05-04 01:39 | 31.20522 | -88.48607 | 37129 ft | 486 kts | 56° |
| 2026-05-04 01:40 | 31.23623 | -88.41579 | 37168 ft | 487 kts | 56° |
| 2026-05-04 01:40 | 31.26727 | -88.34529 | 37133 ft | 488 kts | 56° |
| 2026-05-04 01:41 | 31.29828 | -88.27471 | 37127 ft | 488 kts | 56° |
| 2026-05-04 01:41 | 31.32924 | -88.20410 | 37125 ft | 488 kts | 56° |
| 2026-05-04 01:42 | 31.35992 | -88.13400 | 37130 ft | 487 kts | 56° |
| 2026-05-04 01:42 | 31.39073 | -88.06347 | 37142 ft | 487 kts | 57° |
| 2026-05-04 01:43 | 31.42148 | -87.99295 | 37131 ft | 486 kts | 57° |
| 2026-05-04 01:43 | 31.45220 | -87.92240 | 37127 ft | 486 kts | 57° |
| 2026-05-04 01:44 | 31.48547 | -87.85411 | 37122 ft | 478 kts | 47° |
| 2026-05-04 01:44 | 31.52481 | -87.79165 | 37136 ft | 477 kts | 47° |
| 2026-05-04 01:45 | 31.56353 | -87.72842 | 37126 ft | 478 kts | 48° |
| 2026-05-04 01:45 | 31.62083 | -87.63270 | 37124 ft | 478 kts | 49° |
| 2026-05-04 01:46 | 31.65902 | -87.56888 | 37134 ft | 478 kts | 49° |
| 2026-05-04 01:46 | 31.69725 | -87.50503 | 37131 ft | 478 kts | 49° |
| 2026-05-04 01:47 | 31.73549 | -87.44112 | 37134 ft | 478 kts | 49° |
| 2026-05-04 01:47 | 31.77373 | -87.37708 | 37141 ft | 479 kts | 49° |
| 2026-05-04 01:48 | 31.81195 | -87.31296 | 37128 ft | 479 kts | 50° |
| 2026-05-04 01:48 | 31.85013 | -87.24879 | 37070 ft | 479 kts | 50° |
| 2026-05-04 01:49 | 31.88803 | -87.18501 | 37065 ft | 479 kts | 50° |
| 2026-05-04 01:49 | 31.92639 | -87.12034 | 37065 ft | 478 kts | 50° |
| 2026-05-04 01:50 | 31.96438 | -87.05617 | 37024 ft | 478 kts | 50° |
| 2026-05-04 01:50 | 32.00207 | -86.99240 | 37030 ft | 477 kts | 50° |
| 2026-05-04 01:51 | 32.03995 | -86.92822 | 37080 ft | 477 kts | 50° |
| 2026-05-04 01:51 | 32.07785 | -86.86391 | 37061 ft | 477 kts | 50° |
| 2026-05-04 01:52 | 32.11567 | -86.79959 | 37061 ft | 477 kts | 50° |
| 2026-05-04 01:52 | 32.15343 | -86.73528 | 37062 ft | 477 kts | 50° |
| 2026-05-04 01:53 | 32.19118 | -86.67087 | 37071 ft | 477 kts | 50° |
| 2026-05-04 01:53 | 32.22889 | -86.60642 | 37114 ft | 477 kts | 50° |
| 2026-05-04 01:54 | 32.26655 | -86.54194 | 37141 ft | 477 kts | 51° |
| 2026-05-04 01:54 | 32.30421 | -86.47738 | 37162 ft | 477 kts | 51° |
| 2026-05-04 01:55 | 32.34188 | -86.41272 | 37141 ft | 478 kts | 51° |
| 2026-05-04 01:55 | 32.37959 | -86.34803 | 37057 ft | 478 kts | 51° |
| 2026-05-04 01:56 | 32.39862 | -86.31538 | 36522 ft | 484 kts | 51° |
| 2026-05-04 01:56 | 32.41759 | -86.28273 | 35985 ft | 480 kts | 51° |
| 2026-05-04 01:56 | 32.43648 | -86.25018 | 35431 ft | 477 kts | 51° |
| 2026-05-04 01:56 | 32.45497 | -86.21814 | 35225 ft | 467 kts | 51° |
| 2026-05-04 01:57 | 32.47331 | -86.18633 | 34566 ft | 468 kts | 50° |
| 2026-05-04 01:57 | 32.49160 | -86.15461 | 33973 ft | 467 kts | 51° |
| 2026-05-04 01:57 | 32.50991 | -86.12284 | 33342 ft | 465 kts | 51° |
| 2026-05-04 01:57 | 32.52796 | -86.09145 | 32891 ft | 459 kts | 51° |
| 2026-05-04 01:58 | 32.54583 | -86.06039 | 32434 ft | 453 kts | 51° |
| 2026-05-04 01:58 | 32.56347 | -86.02968 | 31976 ft | 448 kts | 51° |
| 2026-05-04 01:58 | 32.58094 | -85.99927 | 31548 ft | 443 kts | 51° |
| 2026-05-04 01:58 | 32.59787 | -85.96979 | 31318 ft | 434 kts | 51° |
| 2026-05-04 01:59 | 32.61475 | -85.94040 | 30943 ft | 429 kts | 51° |
| 2026-05-04 01:59 | 32.63147 | -85.91131 | 30536 ft | 425 kts | 51° |
| 2026-05-04 01:59 | 32.64805 | -85.88246 | 30098 ft | 422 kts | 51° |
| 2026-05-04 01:59 | 32.66452 | -85.85378 | 29598 ft | 419 kts | 51° |
| 2026-05-04 02:00 | 32.68081 | -85.82537 | 29153 ft | 414 kts | 51° |
| 2026-05-04 02:00 | 32.69693 | -85.79722 | 28702 ft | 410 kts | 51° |
| 2026-05-04 02:00 | 32.71288 | -85.76934 | 28253 ft | 406 kts | 51° |
| 2026-05-04 02:00 | 32.72871 | -85.74169 | 27811 ft | 403 kts | 51° |
| 2026-05-04 02:01 | 32.74438 | -85.71426 | 27366 ft | 400 kts | 51° |
| 2026-05-04 02:01 | 32.75993 | -85.68704 | 26944 ft | 397 kts | 51° |
| 2026-05-04 02:01 | 32.77539 | -85.65996 | 26522 ft | 394 kts | 51° |
| 2026-05-04 02:01 | 32.79074 | -85.63303 | 26104 ft | 392 kts | 52° |
| 2026-05-04 02:02 | 32.80598 | -85.60630 | 25674 ft | 390 kts | 52° |
| 2026-05-04 02:02 | 32.82113 | -85.57969 | 25258 ft | 388 kts | 52° |
| 2026-05-04 02:02 | 32.83621 | -85.55319 | 24837 ft | 386 kts | 52° |
| 2026-05-04 02:02 | 32.85123 | -85.52679 | 24399 ft | 385 kts | 52° |
| 2026-05-04 02:03 | 32.86618 | -85.50047 | 23980 ft | 384 kts | 52° |
| 2026-05-04 02:03 | 32.88116 | -85.47410 | 23513 ft | 384 kts | 52° |
| 2026-05-04 02:03 | 32.89604 | -85.44788 | 23046 ft | 382 kts | 52° |
| 2026-05-04 02:03 | 32.91083 | -85.42178 | 22607 ft | 379 kts | 53° |
| 2026-05-04 02:04 | 32.92551 | -85.39586 | 22177 ft | 377 kts | 53° |
| 2026-05-04 02:04 | 32.94011 | -85.37007 | 21756 ft | 374 kts | 53° |
| 2026-05-04 02:04 | 32.95460 | -85.34445 | 21341 ft | 372 kts | 53° |
| 2026-05-04 02:04 | 32.96900 | -85.31899 | 20934 ft | 370 kts | 53° |
| 2026-05-04 02:05 | 32.98331 | -85.29365 | 20535 ft | 368 kts | 53° |
| 2026-05-04 02:05 | 32.99755 | -85.26844 | 20135 ft | 366 kts | 53° |
| 2026-05-04 02:05 | 33.01171 | -85.24336 | 19732 ft | 364 kts | 53° |
| 2026-05-04 02:05 | 33.02591 | -85.21850 | 19326 ft | 362 kts | 51° |
| 2026-05-04 02:06 | 33.04175 | -85.19579 | 18886 ft | 360 kts | 44° |
| 2026-05-04 02:06 | 33.05889 | -85.17416 | 18461 ft | 359 kts | 43° |
| 2026-05-04 02:06 | 33.07618 | -85.15278 | 18016 ft | 357 kts | 43° |
| 2026-05-04 02:06 | 33.09328 | -85.13140 | 17591 ft | 355 kts | 44° |
| 2026-05-04 02:07 | 33.11014 | -85.10996 | 17180 ft | 353 kts | 44° |
| 2026-05-04 02:07 | 33.12679 | -85.08854 | 16703 ft | 353 kts | 44° |
| 2026-05-04 02:07 | 33.14340 | -85.06703 | 16289 ft | 351 kts | 44° |
| 2026-05-04 02:07 | 33.15988 | -85.04564 | 15874 ft | 349 kts | 44° |
| 2026-05-04 02:08 | 33.17623 | -85.02438 | 15493 ft | 347 kts | 45° |
| 2026-05-04 02:08 | 33.19247 | -85.00326 | 15107 ft | 345 kts | 45° |
| 2026-05-04 02:08 | 33.20865 | -84.98221 | 14723 ft | 343 kts | 45° |
| 2026-05-04 02:08 | 33.22470 | -84.96131 | 14342 ft | 341 kts | 45° |
| 2026-05-04 02:09 | 33.24069 | -84.94049 | 13958 ft | 339 kts | 45° |
| 2026-05-04 02:09 | 33.25657 | -84.91979 | 13537 ft | 337 kts | 45° |
| 2026-05-04 02:09 | 33.27237 | -84.89919 | 13134 ft | 335 kts | 45° |
| 2026-05-04 02:09 | 33.28805 | -84.87874 | 12740 ft | 332 kts | 45° |
| 2026-05-04 02:10 | 33.30359 | -84.85844 | 12362 ft | 330 kts | 45° |
| 2026-05-04 02:10 | 33.31901 | -84.83834 | 11991 ft | 327 kts | 45° |
| 2026-05-04 02:10 | 33.33469 | -84.81916 | 11813 ft | 319 kts | 42° |
| 2026-05-04 02:10 | 33.35057 | -84.80080 | 11620 ft | 316 kts | 41° |
| 2026-05-04 02:11 | 33.36643 | -84.78264 | 11441 ft | 316 kts | 41° |
| 2026-05-04 02:11 | 33.38240 | -84.76433 | 11261 ft | 320 kts | 41° |
| 2026-05-04 02:11 | 33.39847 | -84.74581 | 11081 ft | 321 kts | 41° |
| 2026-05-04 02:11 | 33.41447 | -84.72728 | 10877 ft | 319 kts | 42° |
| 2026-05-04 02:12 | 33.43033 | -84.70884 | 10687 ft | 317 kts | 42° |
| 2026-05-04 02:12 | 33.44597 | -84.69062 | 10487 ft | 310 kts | 42° |
| 2026-05-04 02:12 | 33.46124 | -84.67281 | 10301 ft | 302 kts | 42° |
| 2026-05-04 02:12 | 33.47612 | -84.65545 | 10137 ft | 295 kts | 42° |
| 2026-05-04 02:13 | 33.49068 | -84.63847 | 9975 ft | 288 kts | 42° |
| 2026-05-04 02:13 | 33.50470 | -84.62209 | 9857 ft | 279 kts | 42° |
| 2026-05-04 02:13 | 33.51851 | -84.60596 | 9632 ft | 274 kts | 42° |
| 2026-05-04 02:13 | 33.53125 | -84.58920 | 9433 ft | 273 kts | 57° |
| 2026-05-04 02:14 | 33.53705 | -84.56757 | 9276 ft | 276 kts | 83° |
| 2026-05-04 02:14 | 33.53751 | -84.55231 | 9188 ft | 277 kts | 88° |
| 2026-05-04 02:14 | 33.53730 | -84.52916 | 9020 ft | 279 kts | 89° |
| 2026-05-04 02:14 | 33.53706 | -84.50589 | 8844 ft | 280 kts | 89° |
| 2026-05-04 02:15 | 33.53693 | -84.48248 | 8681 ft | 281 kts | 88° |
| 2026-05-04 02:15 | 33.53688 | -84.45898 | 8515 ft | 283 kts | 88° |
| 2026-05-04 02:15 | 33.53685 | -84.43538 | 8344 ft | 282 kts | 88° |
| 2026-05-04 02:15 | 33.53685 | -84.41199 | 8169 ft | 278 kts | 88° |
| 2026-05-04 02:16 | 33.53686 | -84.38922 | 7997 ft | 271 kts | 88° |
| 2026-05-04 02:16 | 33.53688 | -84.36677 | 7751 ft | 268 kts | 88° |
| 2026-05-04 02:16 | 33.53689 | -84.34440 | 7242 ft | 270 kts | 89° |
| 2026-05-04 02:16 | 33.53689 | -84.32195 | 6790 ft | 269 kts | 89° |
| 2026-05-04 02:17 | 33.53690 | -84.29960 | 6378 ft | 267 kts | 89° |
| 2026-05-04 02:17 | 33.53692 | -84.27744 | 5939 ft | 265 kts | 89° |
| 2026-05-04 02:17 | 33.53695 | -84.25540 | 5474 ft | 264 kts | 89° |
| 2026-05-04 02:17 | 33.53697 | -84.23343 | 5045 ft | 263 kts | 90° |
| 2026-05-04 02:18 | 33.53732 | -84.21156 | 4582 ft | 262 kts | 82° |
| 2026-05-04 02:18 | 33.54302 | -84.19131 | 4370 ft | 249 kts | 55° |
| 2026-05-04 02:18 | 33.55455 | -84.17808 | 4550 ft | 218 kts | 25° |
| 2026-05-04 02:18 | 33.56834 | -84.17290 | 4407 ft | 200 kts | 5° |
| 2026-05-04 02:19 | 33.58157 | -84.17448 | 4178 ft | 188 kts | 336° |
| 2026-05-04 02:19 | 33.59396 | -84.18151 | 3773 ft | 216 kts | 326° |
| 2026-05-04 02:19 | 33.60577 | -84.19382 | 3830 ft | 235 kts | 308° |
| 2026-05-04 02:19 | 33.61437 | -84.20990 | 3909 ft | 220 kts | 296° |
| 2026-05-04 02:20 | 33.62017 | -84.22580 | 3917 ft | 195 kts | 288° |
| 2026-05-04 02:20 | 33.62436 | -84.24049 | 3751 ft | 177 kts | 285° |
| 2026-05-04 02:20 | 33.62723 | -84.25405 | 3623 ft | 162 kts | 282° |
| 2026-05-04 02:20 | 33.62951 | -84.26735 | 3417 ft | 162 kts | 279° |
| 2026-05-04 02:21 | 33.63081 | -84.28005 | 3481 ft | 153 kts | 275° |
| 2026-05-04 02:21 | 33.63122 | -84.29331 | 3312 ft | 159 kts | 269° |
| 2026-05-04 02:21 | 33.63095 | -84.30649 | 3129 ft | 159 kts | 269° |
| 2026-05-04 02:21 | 33.63100 | -84.31959 | 2888 ft | 157 kts | 271° |
| 2026-05-04 02:22 | 33.63132 | -84.33279 | 2561 ft | 159 kts | 272° |
| 2026-05-04 02:22 | 33.63141 | -84.34609 | 2275 ft | 158 kts | 272° |
| 2026-05-04 02:22 | 33.63180 | -84.35903 | 1959 ft | 154 kts | 273° |
| 2026-05-04 02:22 | 33.63198 | -84.37158 | 1867 ft | 151 kts | 271° |
| 2026-05-04 02:23 | 33.63186 | -84.38440 | 1666 ft | 159 kts | 269° |
| 2026-05-04 02:23 | 33.63172 | -84.39758 | 1440 ft | 159 kts | 271° |
| 2026-05-04 02:23 | 33.63188 | -84.41076 | 1200 ft | 155 kts | 272° |
| 2026-05-04 02:23 | 33.63187 | -84.42350 | 1037 ft | 151 kts | 270° |
| 2026-05-04 02:24 | 33.63183 | -84.43256 | 1036 ft | 40 kts | 269° |
| 2026-05-04 02:24 | 33.63187 | -84.43473 | 1035 ft | 23 kts | 280° |
| 2026-05-04 02:24 | 33.63241 | -84.43659 | 1035 ft | 27 kts | 297° |
| 2026-05-04 02:24 | 33.63339 | -84.43885 | 1034 ft | 34 kts | 284° |
| 2026-05-04 02:25 | 33.63352 | -84.44121 | 1034 ft | 20 kts | 277° |
| 2026-05-04 02:25 | 33.63462 | -84.44196 | 1034 ft | 21 kts | 359° |
| 2026-05-04 02:25 | 33.63609 | -84.44198 | 1035 ft | 21 kts | 2° |
| 2026-05-04 02:25 | 33.63659 | -84.44118 | 1035 ft | 11 kts | 85° |
| 2026-05-04 02:26 | 33.63666 | -84.43993 | 1035 ft | 17 kts | 89° |
| 2026-05-04 02:26 | 33.63670 | -84.43841 | 1035 ft | 18 kts | 80° |
| 2026-05-04 02:26 | 33.63769 | -84.43788 | 1034 ft | 13 kts | 1° |
| 2026-05-04 02:26 | 33.63806 | -84.43788 | 1034 ft | 0 kts | 360° |
| 2026-05-04 02:27 | 33.63842 | -84.43790 | 1034 ft | 13 kts | 346° |
| 2026-05-04 02:27 | 33.63882 | -84.43849 | 1034 ft | 4 kts | 271° |
| 2026-05-04 02:27 | 33.63882 | -84.43870 | 1034 ft | 0 kts | 269° |